sensor_id;sensor_type;location;lat;lon;timestamp;P1;durP1;ratioP1;P2;durP2;ratioP2
7665;SDS011;3875;46.562;4.898;2024-02-26T00:01:58;16.40;;;15.17;;
7665;SDS011;3875;46.562;4.898;2024-02-26T00:04:24;21.07;;;19.57;;
7665;SDS011;3875;46.562;4.898;2024-02-26T00:06:50;5.20;;;2.53;;
7665;SDS011;3875;46.562;4.898;2024-02-26T00:09:19;12.07;;;8.73;;
7665;SDS011;3875;46.562;4.898;2024-02-26T00:11:47;25.60;;;23.70;;
7665;SDS011;3875;46.562;4.898;2024-02-26T00:14:13;38.77;;;36.07;;
7665;SDS011;3875;46.562;4.898;2024-02-26T00:16:42;21.17;;;19.57;;
7665;SDS011;3875;46.562;4.898;2024-02-26T00:19:08;33.27;;;31.37;;
7665;SDS011;3875;46.562;4.898;2024-02-26T00:21:33;32.47;;;30.37;;
7665;SDS011;3875;46.562;4.898;2024-02-26T00:23:59;20.03;;;18.40;;
7665;SDS011;3875;46.562;4.898;2024-02-26T00:26:25;23.43;;;21.97;;
7665;SDS011;3875;46.562;4.898;2024-02-26T00:28:50;23.13;;;21.43;;
7665;SDS011;3875;46.562;4.898;2024-02-26T00:31:16;33.00;;;31.03;;
7665;SDS011;3875;46.562;4.898;2024-02-26T00:33:42;34.83;;;32.63;;
7665;SDS011;3875;46.562;4.898;2024-02-26T00:36:08;43.47;;;40.97;;
7665;SDS011;3875;46.562;4.898;2024-02-26T00:38:34;29.70;;;28.03;;
7665;SDS011;3875;46.562;4.898;2024-02-26T00:41:00;42.47;;;40.07;;
7665;SDS011;3875;46.562;4.898;2024-02-26T00:43:26;41.00;;;38.70;;
7665;SDS011;3875;46.562;4.898;2024-02-26T00:45:51;28.13;;;26.43;;
7665;SDS011;3875;46.562;4.898;2024-02-26T00:48:17;13.43;;;12.43;;
7665;SDS011;3875;46.562;4.898;2024-02-26T00:50:43;14.17;;;13.17;;
7665;SDS011;3875;46.562;4.898;2024-02-26T00:53:09;39.70;;;37.47;;
7665;SDS011;3875;46.562;4.898;2024-02-26T00:55:34;42.67;;;40.47;;
7665;SDS011;3875;46.562;4.898;2024-02-26T00:58:00;43.13;;;40.53;;
7665;SDS011;3875;46.562;4.898;2024-02-26T01:00:26;37.90;;;35.80;;
7665;SDS011;3875;46.562;4.898;2024-02-26T01:02:51;23.43;;;21.93;;
7665;SDS011;3875;46.562;4.898;2024-02-26T01:05:17;32.90;;;30.80;;
7665;SDS011;3875;46.562;4.898;2024-02-26T01:07:43;24.47;;;22.63;;
7665;SDS011;3875;46.562;4.898;2024-02-26T01:10:09;19.40;;;18.00;;
7665;SDS011;3875;46.562;4.898;2024-02-26T01:12:35;4.80;;;3.73;;
7665;SDS011;3875;46.562;4.898;2024-02-26T01:15:01;12.90;;;12.13;;
7665;SDS011;3875;46.562;4.898;2024-02-26T01:17:28;16.00;;;14.93;;
7665;SDS011;3875;46.562;4.898;2024-02-26T01:19:54;15.63;;;14.53;;
7665;SDS011;3875;46.562;4.898;2024-02-26T01:22:19;6.33;;;4.50;;
7665;SDS011;3875;46.562;4.898;2024-02-26T01:24:45;7.63;;;6.83;;
7665;SDS011;3875;46.562;4.898;2024-02-26T01:27:11;27.97;;;26.37;;
7665;SDS011;3875;46.562;4.898;2024-02-26T01:29:37;14.10;;;13.17;;
7665;SDS011;3875;46.562;4.898;2024-02-26T01:32:03;22.57;;;21.07;;
7665;SDS011;3875;46.562;4.898;2024-02-26T01:34:30;9.53;;;8.67;;
7665;SDS011;3875;46.562;4.898;2024-02-26T01:36:56;21.33;;;19.63;;
7665;SDS011;3875;46.562;4.898;2024-02-26T01:39:22;36.63;;;34.30;;
7665;SDS011;3875;46.562;4.898;2024-02-26T01:41:48;35.93;;;33.87;;
7665;SDS011;3875;46.562;4.898;2024-02-26T01:44:14;3.50;;;1.30;;
7665;SDS011;3875;46.562;4.898;2024-02-26T01:46:39;3.97;;;1.37;;
7665;SDS011;3875;46.562;4.898;2024-02-26T01:49:06;3.63;;;1.27;;
7665;SDS011;3875;46.562;4.898;2024-02-26T01:51:33;18.77;;;17.53;;
7665;SDS011;3875;46.562;4.898;2024-02-26T01:54:00;27.37;;;25.57;;
7665;SDS011;3875;46.562;4.898;2024-02-26T01:56:28;32.10;;;30.17;;
7665;SDS011;3875;46.562;4.898;2024-02-26T01:58:57;6.27;;;5.47;;
7665;SDS011;3875;46.562;4.898;2024-02-26T02:01:25;31.20;;;29.27;;
7665;SDS011;3875;46.562;4.898;2024-02-26T02:03:52;21.10;;;19.73;;
7665;SDS011;3875;46.562;4.898;2024-02-26T02:06:18;35.53;;;33.60;;
7665;SDS011;3875;46.562;4.898;2024-02-26T02:08:44;31.23;;;29.43;;
7665;SDS011;3875;46.562;4.898;2024-02-26T02:11:10;10.83;;;9.93;;
7665;SDS011;3875;46.562;4.898;2024-02-26T02:13:40;5.10;;;1.67;;
7665;SDS011;3875;46.562;4.898;2024-02-26T02:16:06;5.97;;;1.93;;
7665;SDS011;3875;46.562;4.898;2024-02-26T02:18:32;6.53;;;2.00;;
7665;SDS011;3875;46.562;4.898;2024-02-26T02:20:59;4.53;;;1.53;;
7665;SDS011;3875;46.562;4.898;2024-02-26T02:23:26;3.87;;;1.30;;
7665;SDS011;3875;46.562;4.898;2024-02-26T02:25:52;6.17;;;1.97;;
7665;SDS011;3875;46.562;4.898;2024-02-26T02:28:18;3.83;;;1.37;;
7665;SDS011;3875;46.562;4.898;2024-02-26T02:30:44;3.93;;;1.37;;
7665;SDS011;3875;46.562;4.898;2024-02-26T02:33:10;6.93;;;2.03;;
7665;SDS011;3875;46.562;4.898;2024-02-26T02:35:37;6.13;;;2.00;;
7665;SDS011;3875;46.562;4.898;2024-02-26T02:38:03;4.07;;;1.50;;
7665;SDS011;3875;46.562;4.898;2024-02-26T02:40:29;4.97;;;1.70;;
7665;SDS011;3875;46.562;4.898;2024-02-26T02:42:54;4.07;;;1.30;;
7665;SDS011;3875;46.562;4.898;2024-02-26T02:45:20;4.53;;;1.53;;
7665;SDS011;3875;46.562;4.898;2024-02-26T02:47:46;5.20;;;1.63;;
7665;SDS011;3875;46.562;4.898;2024-02-26T02:50:11;31.60;;;29.53;;
7665;SDS011;3875;46.562;4.898;2024-02-26T02:52:37;4.00;;;1.40;;
7665;SDS011;3875;46.562;4.898;2024-02-26T02:55:03;3.07;;;1.30;;
7665;SDS011;3875;46.562;4.898;2024-02-26T02:57:29;21.97;;;20.63;;
7665;SDS011;3875;46.562;4.898;2024-02-26T02:59:55;20.57;;;19.33;;
7665;SDS011;3875;46.562;4.898;2024-02-26T03:02:21;44.50;;;41.87;;
7665;SDS011;3875;46.562;4.898;2024-02-26T03:04:49;17.03;;;15.80;;
7665;SDS011;3875;46.562;4.898;2024-02-26T03:07:15;32.37;;;30.27;;
7665;SDS011;3875;46.562;4.898;2024-02-26T03:09:41;5.47;;;4.27;;
7665;SDS011;3875;46.562;4.898;2024-02-26T03:12:07;11.80;;;10.83;;
7665;SDS011;3875;46.562;4.898;2024-02-26T03:14:33;29.47;;;27.77;;
7665;SDS011;3875;46.562;4.898;2024-02-26T03:16:58;5.17;;;1.97;;
7665;SDS011;3875;46.562;4.898;2024-02-26T03:19:24;10.23;;;8.73;;
7665;SDS011;3875;46.562;4.898;2024-02-26T03:21:50;13.90;;;12.83;;
7665;SDS011;3875;46.562;4.898;2024-02-26T03:24:16;11.30;;;10.33;;
7665;SDS011;3875;46.562;4.898;2024-02-26T03:26:42;4.10;;;1.40;;
7665;SDS011;3875;46.562;4.898;2024-02-26T03:29:08;8.53;;;7.77;;
7665;SDS011;3875;46.562;4.898;2024-02-26T03:31:33;11.03;;;10.13;;
7665;SDS011;3875;46.562;4.898;2024-02-26T03:33:59;25.23;;;23.63;;
7665;SDS011;3875;46.562;4.898;2024-02-26T03:36:25;20.17;;;18.83;;
7665;SDS011;3875;46.562;4.898;2024-02-26T03:38:50;15.07;;;14.00;;
7665;SDS011;3875;46.562;4.898;2024-02-26T03:41:16;4.10;;;1.40;;
7665;SDS011;3875;46.562;4.898;2024-02-26T03:43:42;3.07;;;1.13;;
7665;SDS011;3875;46.562;4.898;2024-02-26T03:46:08;2.97;;;1.13;;
7665;SDS011;3875;46.562;4.898;2024-02-26T03:48:38;4.17;;;1.73;;
7665;SDS011;3875;46.562;4.898;2024-02-26T03:51:05;4.20;;;1.47;;
7665;SDS011;3875;46.562;4.898;2024-02-26T03:53:31;4.57;;;1.63;;
7665;SDS011;3875;46.562;4.898;2024-02-26T03:55:56;5.27;;;1.67;;
7665;SDS011;3875;46.562;4.898;2024-02-26T03:58:22;4.83;;;1.67;;
7665;SDS011;3875;46.562;4.898;2024-02-26T04:00:48;4.40;;;1.53;;
7665;SDS011;3875;46.562;4.898;2024-02-26T04:03:13;3.20;;;1.20;;
7665;SDS011;3875;46.562;4.898;2024-02-26T04:05:39;6.97;;;2.10;;
7665;SDS011;3875;46.562;4.898;2024-02-26T04:08:08;4.00;;;1.40;;
7665;SDS011;3875;46.562;4.898;2024-02-26T04:10:38;6.67;;;2.13;;
7665;SDS011;3875;46.562;4.898;2024-02-26T04:13:14;5.87;;;1.87;;
7665;SDS011;3875;46.562;4.898;2024-02-26T04:15:43;6.90;;;2.17;;
7665;SDS011;3875;46.562;4.898;2024-02-26T04:18:09;5.47;;;1.90;;
7665;SDS011;3875;46.562;4.898;2024-02-26T04:20:35;6.33;;;2.10;;
7665;SDS011;3875;46.562;4.898;2024-02-26T04:23:00;6.00;;;2.10;;
7665;SDS011;3875;46.562;4.898;2024-02-26T04:25:26;5.37;;;1.87;;
7665;SDS011;3875;46.562;4.898;2024-02-26T04:27:53;4.37;;;1.53;;
7665;SDS011;3875;46.562;4.898;2024-02-26T04:30:19;4.97;;;1.60;;
7665;SDS011;3875;46.562;4.898;2024-02-26T04:32:45;4.90;;;1.70;;
7665;SDS011;3875;46.562;4.898;2024-02-26T04:35:11;4.93;;;1.67;;
7665;SDS011;3875;46.562;4.898;2024-02-26T04:37:36;5.33;;;1.70;;
7665;SDS011;3875;46.562;4.898;2024-02-26T04:40:03;4.27;;;1.50;;
7665;SDS011;3875;46.562;4.898;2024-02-26T04:42:29;4.87;;;1.60;;
7665;SDS011;3875;46.562;4.898;2024-02-26T04:44:57;3.40;;;1.40;;
7665;SDS011;3875;46.562;4.898;2024-02-26T04:47:23;3.53;;;1.40;;
7665;SDS011;3875;46.562;4.898;2024-02-26T04:49:56;7.07;;;2.13;;
7665;SDS011;3875;46.562;4.898;2024-02-26T04:52:34;6.53;;;2.03;;
7665;SDS011;3875;46.562;4.898;2024-02-26T04:55:19;4.67;;;1.53;;
7665;SDS011;3875;46.562;4.898;2024-02-26T04:58:01;5.20;;;1.70;;
7665;SDS011;3875;46.562;4.898;2024-02-26T05:03:41;4.97;;;1.67;;
7665;SDS011;3875;46.562;4.898;2024-02-26T05:06:09;4.23;;;1.40;;
7665;SDS011;3875;46.562;4.898;2024-02-26T05:08:55;4.10;;;1.43;;
7665;SDS011;3875;46.562;4.898;2024-02-26T05:11:56;6.67;;;2.00;;
7665;SDS011;3875;46.562;4.898;2024-02-26T05:14:45;3.83;;;1.40;;
7665;SDS011;3875;46.562;4.898;2024-02-26T05:17:13;4.27;;;1.57;;
7665;SDS011;3875;46.562;4.898;2024-02-26T05:19:38;3.97;;;1.47;;
7665;SDS011;3875;46.562;4.898;2024-02-26T05:22:04;4.00;;;1.33;;
7665;SDS011;3875;46.562;4.898;2024-02-26T05:24:30;5.07;;;1.70;;
7665;SDS011;3875;46.562;4.898;2024-02-26T05:26:55;6.30;;;2.00;;
7665;SDS011;3875;46.562;4.898;2024-02-26T05:29:21;4.30;;;1.47;;
7665;SDS011;3875;46.562;4.898;2024-02-26T05:31:47;4.87;;;1.60;;
7665;SDS011;3875;46.562;4.898;2024-02-26T05:34:12;4.53;;;1.43;;
7665;SDS011;3875;46.562;4.898;2024-02-26T05:36:38;6.83;;;2.07;;
7665;SDS011;3875;46.562;4.898;2024-02-26T05:39:04;5.70;;;1.73;;
7665;SDS011;3875;46.562;4.898;2024-02-26T05:41:30;5.10;;;1.70;;
7665;SDS011;3875;46.562;4.898;2024-02-26T05:43:55;5.73;;;1.87;;
7665;SDS011;3875;46.562;4.898;2024-02-26T05:46:21;5.40;;;2.10;;
7665;SDS011;3875;46.562;4.898;2024-02-26T05:48:48;3.33;;;1.27;;
7665;SDS011;3875;46.562;4.898;2024-02-26T05:51:15;3.93;;;1.33;;
7665;SDS011;3875;46.562;4.898;2024-02-26T05:53:41;2.90;;;1.17;;
7665;SDS011;3875;46.562;4.898;2024-02-26T05:56:07;5.70;;;1.83;;
7665;SDS011;3875;46.562;4.898;2024-02-26T05:58:33;5.77;;;1.80;;
7665;SDS011;3875;46.562;4.898;2024-02-26T06:00:59;5.20;;;1.70;;
7665;SDS011;3875;46.562;4.898;2024-02-26T06:03:25;6.03;;;2.00;;
7665;SDS011;3875;46.562;4.898;2024-02-26T06:05:51;6.50;;;2.20;;
7665;SDS011;3875;46.562;4.898;2024-02-26T06:08:17;6.40;;;1.93;;
7665;SDS011;3875;46.562;4.898;2024-02-26T06:10:43;5.57;;;1.80;;
7665;SDS011;3875;46.562;4.898;2024-02-26T06:13:08;5.17;;;1.77;;
7665;SDS011;3875;46.562;4.898;2024-02-26T06:15:34;22.57;;;21.03;;
7665;SDS011;3875;46.562;4.898;2024-02-26T06:18:00;54.87;;;51.73;;
7665;SDS011;3875;46.562;4.898;2024-02-26T06:20:26;21.90;;;20.27;;
7665;SDS011;3875;46.562;4.898;2024-02-26T06:22:51;60.70;;;57.43;;
7665;SDS011;3875;46.562;4.898;2024-02-26T06:25:17;70.57;;;66.63;;
7665;SDS011;3875;46.562;4.898;2024-02-26T06:27:43;90.60;;;85.73;;
7665;SDS011;3875;46.562;4.898;2024-02-26T06:30:08;71.23;;;67.10;;
7665;SDS011;3875;46.562;4.898;2024-02-26T06:32:36;6.23;;;5.60;;
7665;SDS011;3875;46.562;4.898;2024-02-26T06:35:04;29.77;;;27.80;;
7665;SDS011;3875;46.562;4.898;2024-02-26T06:37:33;56.37;;;53.30;;
7665;SDS011;3875;46.562;4.898;2024-02-26T06:39:59;53.63;;;50.47;;
7665;SDS011;3875;46.562;4.898;2024-02-26T06:42:25;65.33;;;61.83;;
7665;SDS011;3875;46.562;4.898;2024-02-26T06:44:51;76.90;;;72.40;;
7665;SDS011;3875;46.562;4.898;2024-02-26T06:47:17;92.10;;;86.47;;
7665;SDS011;3875;46.562;4.898;2024-02-26T06:49:42;103.37;;;96.43;;
7665;SDS011;3875;46.562;4.898;2024-02-26T06:52:09;109.97;;;102.83;;
7665;SDS011;3875;46.562;4.898;2024-02-26T06:54:34;102.17;;;95.80;;
7665;SDS011;3875;46.562;4.898;2024-02-26T06:57:00;64.73;;;61.23;;
7665;SDS011;3875;46.562;4.898;2024-02-26T06:59:26;64.17;;;60.67;;
7665;SDS011;3875;46.562;4.898;2024-02-26T07:01:52;73.63;;;69.47;;
7665;SDS011;3875;46.562;4.898;2024-02-26T07:04:19;72.13;;;67.87;;
7665;SDS011;3875;46.562;4.898;2024-02-26T07:06:45;84.83;;;79.70;;
7665;SDS011;3875;46.562;4.898;2024-02-26T07:09:11;13.47;;;12.50;;
7665;SDS011;3875;46.562;4.898;2024-02-26T07:11:37;69.00;;;65.33;;
7665;SDS011;3875;46.562;4.898;2024-02-26T07:14:06;78.20;;;73.77;;
7665;SDS011;3875;46.562;4.898;2024-02-26T07:16:33;77.97;;;73.50;;
7665;SDS011;3875;46.562;4.898;2024-02-26T07:18:59;77.27;;;72.93;;
7665;SDS011;3875;46.562;4.898;2024-02-26T07:21:24;40.37;;;37.87;;
7665;SDS011;3875;46.562;4.898;2024-02-26T07:23:50;38.40;;;36.00;;
7665;SDS011;3875;46.562;4.898;2024-02-26T07:26:16;19.23;;;18.03;;
7665;SDS011;3875;46.562;4.898;2024-02-26T07:28:43;17.73;;;16.40;;
7665;SDS011;3875;46.562;4.898;2024-02-26T07:31:12;8.03;;;7.33;;
7665;SDS011;3875;46.562;4.898;2024-02-26T07:33:38;16.27;;;14.93;;
7665;SDS011;3875;46.562;4.898;2024-02-26T07:36:03;7.57;;;5.90;;
7665;SDS011;3875;46.562;4.898;2024-02-26T07:38:29;5.57;;;1.77;;
7665;SDS011;3875;46.562;4.898;2024-02-26T07:40:55;4.50;;;1.53;;
7665;SDS011;3875;46.562;4.898;2024-02-26T07:43:22;5.00;;;1.60;;
7665;SDS011;3875;46.562;4.898;2024-02-26T07:45:48;3.83;;;1.37;;
7665;SDS011;3875;46.562;4.898;2024-02-26T07:48:13;5.40;;;1.70;;
7665;SDS011;3875;46.562;4.898;2024-02-26T07:50:39;5.63;;;1.77;;
7665;SDS011;3875;46.562;4.898;2024-02-26T07:53:05;4.97;;;1.63;;
7665;SDS011;3875;46.562;4.898;2024-02-26T07:55:31;6.17;;;1.93;;
7665;SDS011;3875;46.562;4.898;2024-02-26T07:57:57;4.23;;;1.53;;
7665;SDS011;3875;46.562;4.898;2024-02-26T08:00:23;4.77;;;1.60;;
7665;SDS011;3875;46.562;4.898;2024-02-26T08:02:48;7.17;;;2.20;;
7665;SDS011;3875;46.562;4.898;2024-02-26T08:05:14;3.20;;;1.23;;
7665;SDS011;3875;46.562;4.898;2024-02-26T08:07:40;3.93;;;1.40;;
7665;SDS011;3875;46.562;4.898;2024-02-26T08:10:06;4.80;;;1.63;;
7665;SDS011;3875;46.562;4.898;2024-02-26T08:12:32;3.17;;;1.20;;
7665;SDS011;3875;46.562;4.898;2024-02-26T08:14:58;4.47;;;1.47;;
7665;SDS011;3875;46.562;4.898;2024-02-26T08:17:25;3.90;;;1.40;;
7665;SDS011;3875;46.562;4.898;2024-02-26T08:19:52;4.50;;;1.50;;
7665;SDS011;3875;46.562;4.898;2024-02-26T08:22:18;3.83;;;1.33;;
7665;SDS011;3875;46.562;4.898;2024-02-26T08:24:43;4.73;;;1.50;;
7665;SDS011;3875;46.562;4.898;2024-02-26T08:27:09;5.73;;;1.87;;
7665;SDS011;3875;46.562;4.898;2024-02-26T08:29:35;4.37;;;1.43;;
7665;SDS011;3875;46.562;4.898;2024-02-26T08:32:01;4.73;;;1.60;;
7665;SDS011;3875;46.562;4.898;2024-02-26T08:34:27;5.10;;;1.73;;
7665;SDS011;3875;46.562;4.898;2024-02-26T08:36:53;5.30;;;1.83;;
7665;SDS011;3875;46.562;4.898;2024-02-26T08:39:18;4.57;;;1.60;;
7665;SDS011;3875;46.562;4.898;2024-02-26T08:41:44;6.93;;;2.13;;
7665;SDS011;3875;46.562;4.898;2024-02-26T08:44:10;4.67;;;1.60;;
7665;SDS011;3875;46.562;4.898;2024-02-26T08:46:39;5.00;;;1.67;;
7665;SDS011;3875;46.562;4.898;2024-02-26T08:49:11;6.00;;;2.03;;
7665;SDS011;3875;46.562;4.898;2024-02-26T08:51:46;6.17;;;2.00;;
7665;SDS011;3875;46.562;4.898;2024-02-26T08:54:11;4.73;;;1.80;;
7665;SDS011;3875;46.562;4.898;2024-02-26T08:56:37;4.77;;;1.50;;
7665;SDS011;3875;46.562;4.898;2024-02-26T08:59:03;22.73;;;21.43;;
7665;SDS011;3875;46.562;4.898;2024-02-26T09:01:32;50.63;;;47.77;;
7665;SDS011;3875;46.562;4.898;2024-02-26T09:03:58;4.07;;;1.60;;
7665;SDS011;3875;46.562;4.898;2024-02-26T09:06:24;6.23;;;2.00;;
7665;SDS011;3875;46.562;4.898;2024-02-26T09:08:49;4.87;;;1.60;;
7665;SDS011;3875;46.562;4.898;2024-02-26T09:11:15;3.67;;;1.37;;
7665;SDS011;3875;46.562;4.898;2024-02-26T09:13:41;3.93;;;1.40;;
7665;SDS011;3875;46.562;4.898;2024-02-26T09:16:07;4.00;;;1.43;;
7665;SDS011;3875;46.562;4.898;2024-02-26T09:18:33;3.63;;;1.33;;
7665;SDS011;3875;46.562;4.898;2024-02-26T09:21:10;3.43;;;1.20;;
7665;SDS011;3875;46.562;4.898;2024-02-26T09:23:36;5.37;;;1.70;;
7665;SDS011;3875;46.562;4.898;2024-02-26T09:26:07;5.03;;;1.60;;
7665;SDS011;3875;46.562;4.898;2024-02-26T09:29:17;6.03;;;1.83;;
7665;SDS011;3875;46.562;4.898;2024-02-26T09:32:24;5.73;;;1.83;;
7665;SDS011;3875;46.562;4.898;2024-02-26T09:34:50;5.17;;;1.77;;
7665;SDS011;3875;46.562;4.898;2024-02-26T09:37:15;5.30;;;1.70;;
7665;SDS011;3875;46.562;4.898;2024-02-26T09:39:41;5.70;;;1.87;;
7665;SDS011;3875;46.562;4.898;2024-02-26T09:42:07;4.70;;;1.63;;
7665;SDS011;3875;46.562;4.898;2024-02-26T09:44:45;5.60;;;1.77;;
7665;SDS011;3875;46.562;4.898;2024-02-26T09:47:33;6.17;;;1.87;;
7665;SDS011;3875;46.562;4.898;2024-02-26T09:50:03;4.47;;;1.47;;
7665;SDS011;3875;46.562;4.898;2024-02-26T09:52:33;6.20;;;2.00;;
7665;SDS011;3875;46.562;4.898;2024-02-26T09:55:02;4.57;;;1.50;;
7665;SDS011;3875;46.562;4.898;2024-02-26T10:01:09;6.10;;;2.00;;
7665;SDS011;3875;46.562;4.898;2024-02-26T10:11:00;4.70;;;2.70;;
7665;SDS011;3875;46.562;4.898;2024-02-26T10:13:31;15.63;;;4.57;;
7665;SDS011;3875;46.562;4.898;2024-02-26T10:19:44;11.67;;;4.03;;
7665;SDS011;3875;46.562;4.898;2024-02-26T10:22:12;10.23;;;4.13;;
7665;SDS011;3875;46.562;4.898;2024-02-26T10:24:41;7.37;;;2.80;;
7665;SDS011;3875;46.562;4.898;2024-02-26T10:27:07;5.27;;;2.03;;
7665;SDS011;3875;46.562;4.898;2024-02-26T10:29:34;8.57;;;2.83;;
7665;SDS011;3875;46.562;4.898;2024-02-26T10:32:03;7.17;;;2.17;;
7665;SDS011;3875;46.562;4.898;2024-02-26T10:34:31;8.00;;;2.80;;
7665;SDS011;3875;46.562;4.898;2024-02-26T10:37:01;6.97;;;3.13;;
7665;SDS011;3875;46.562;4.898;2024-02-26T10:39:36;7.40;;;3.77;;
7665;SDS011;3875;46.562;4.898;2024-02-26T10:42:12;6.73;;;3.13;;
7665;SDS011;3875;46.562;4.898;2024-02-26T10:44:55;10.50;;;3.33;;
7665;SDS011;3875;46.562;4.898;2024-02-26T10:47:58;59.43;;;55.73;;
7665;SDS011;3875;46.562;4.898;2024-02-26T10:54:00;10.50;;;8.63;;
7665;SDS011;3875;46.562;4.898;2024-02-26T10:56:33;88.32;;;83.18;;
7665;SDS011;3875;46.562;4.898;2024-02-26T10:58:59;17.93;;;16.63;;
7665;SDS011;3875;46.562;4.898;2024-02-26T11:01:26;14.83;;;13.60;;
7665;SDS011;3875;46.562;4.898;2024-02-26T11:04:04;11.85;;;9.77;;
7665;SDS011;3875;46.562;4.898;2024-02-26T11:06:33;16.87;;;15.70;;
7665;SDS011;3875;46.562;4.898;2024-02-26T11:09:00;7.53;;;6.67;;
7665;SDS011;3875;46.562;4.898;2024-02-26T11:11:27;8.00;;;4.17;;
7665;SDS011;3875;46.562;4.898;2024-02-26T11:13:55;7.07;;;4.20;;
7665;SDS011;3875;46.562;4.898;2024-02-26T11:16:22;7.13;;;4.53;;
7665;SDS011;3875;46.562;4.898;2024-02-26T11:18:48;8.57;;;7.50;;
7665;SDS011;3875;46.562;4.898;2024-02-26T11:21:15;7.97;;;7.03;;
7665;SDS011;3875;46.562;4.898;2024-02-26T11:23:45;16.50;;;15.17;;
7665;SDS011;3875;46.562;4.898;2024-02-26T11:26:11;30.13;;;28.30;;
7665;SDS011;3875;46.562;4.898;2024-02-26T11:28:39;52.93;;;49.30;;
7665;SDS011;3875;46.562;4.898;2024-02-26T11:31:06;69.17;;;65.10;;
7665;SDS011;3875;46.562;4.898;2024-02-26T11:33:33;38.43;;;35.83;;
7665;SDS011;3875;46.562;4.898;2024-02-26T11:36:01;28.93;;;26.87;;
7665;SDS011;3875;46.562;4.898;2024-02-26T11:38:27;32.70;;;30.50;;
7665;SDS011;3875;46.562;4.898;2024-02-26T11:40:54;15.00;;;13.97;;
7665;SDS011;3875;46.562;4.898;2024-02-26T11:43:23;12.47;;;11.37;;
7665;SDS011;3875;46.562;4.898;2024-02-26T11:46:24;7.40;;;5.23;;
7665;SDS011;3875;46.562;4.898;2024-02-26T11:51:52;4.27;;;1.97;;
7665;SDS011;3875;46.562;4.898;2024-02-26T11:59:53;3.47;;;1.70;;
7665;SDS011;3875;46.562;4.898;2024-02-26T12:07:47;89.20;;;83.83;;
7665;SDS011;3875;46.562;4.898;2024-02-26T12:12:53;213.30;;;201.00;;
7665;SDS011;3875;46.562;4.898;2024-02-26T12:15:23;188.00;;;177.63;;
7665;SDS011;3875;46.562;4.898;2024-02-26T12:17:49;215.53;;;203.57;;
7665;SDS011;3875;46.562;4.898;2024-02-26T12:20:16;185.50;;;175.27;;
7665;SDS011;3875;46.562;4.898;2024-02-26T12:22:47;165.23;;;156.00;;
7665;SDS011;3875;46.562;4.898;2024-02-26T12:25:15;101.63;;;95.90;;
7665;SDS011;3875;46.562;4.898;2024-02-26T12:27:41;131.00;;;123.87;;
7665;SDS011;3875;46.562;4.898;2024-02-26T12:30:07;179.80;;;170.03;;
7665;SDS011;3875;46.562;4.898;2024-02-26T12:32:34;190.43;;;180.03;;
7665;SDS011;3875;46.562;4.898;2024-02-26T12:35:00;148.43;;;140.10;;
7665;SDS011;3875;46.562;4.898;2024-02-26T12:37:27;151.10;;;142.70;;
7665;SDS011;3875;46.562;4.898;2024-02-26T12:39:53;417.30;;;391.97;;
7665;SDS011;3875;46.562;4.898;2024-02-26T12:42:19;214.47;;;202.40;;
7665;SDS011;3875;46.562;4.898;2024-02-26T12:44:45;207.53;;;195.37;;
7665;SDS011;3875;46.562;4.898;2024-02-26T12:47:11;313.20;;;295.23;;
7665;SDS011;3875;46.562;4.898;2024-02-26T12:49:46;865.07;;;803.57;;
7665;SDS011;3875;46.562;4.898;2024-02-26T12:52:13;532.87;;;499.63;;
7665;SDS011;3875;46.562;4.898;2024-02-26T12:54:40;39.10;;;36.73;;
7665;SDS011;3875;46.562;4.898;2024-02-26T12:57:07;27.73;;;25.77;;
7665;SDS011;3875;46.562;4.898;2024-02-26T12:59:34;16.13;;;14.83;;
7665;SDS011;3875;46.562;4.898;2024-02-26T13:02:01;4.40;;;2.13;;
7665;SDS011;3875;46.562;4.898;2024-02-26T13:04:29;3.37;;;1.40;;
7665;SDS011;3875;46.562;4.898;2024-02-26T13:06:55;5.00;;;2.17;;
7665;SDS011;3875;46.562;4.898;2024-02-26T13:09:27;5.13;;;2.17;;
7665;SDS011;3875;46.562;4.898;2024-02-26T13:11:55;7.07;;;3.43;;
7665;SDS011;3875;46.562;4.898;2024-02-26T13:14:21;5.07;;;4.47;;
7665;SDS011;3875;46.562;4.898;2024-02-26T13:16:57;6.03;;;4.67;;
7665;SDS011;3875;46.562;4.898;2024-02-26T13:19:23;7.63;;;6.77;;
7665;SDS011;3875;46.562;4.898;2024-02-26T13:21:49;5.10;;;1.77;;
7665;SDS011;3875;46.562;4.898;2024-02-26T13:24:15;3.43;;;1.40;;
7665;SDS011;3875;46.562;4.898;2024-02-26T13:26:41;4.37;;;1.80;;
7665;SDS011;3875;46.562;4.898;2024-02-26T13:29:07;3.63;;;1.70;;
7665;SDS011;3875;46.562;4.898;2024-02-26T13:31:39;4.67;;;2.03;;
7665;SDS011;3875;46.562;4.898;2024-02-26T13:34:05;5.43;;;2.13;;
7665;SDS011;3875;46.562;4.898;2024-02-26T13:36:30;5.23;;;1.90;;
7665;SDS011;3875;46.562;4.898;2024-02-26T13:38:56;4.03;;;2.57;;
7665;SDS011;3875;46.562;4.898;2024-02-26T13:41:22;5.50;;;2.70;;
7665;SDS011;3875;46.562;4.898;2024-02-26T13:43:48;4.63;;;1.87;;
7665;SDS011;3875;46.562;4.898;2024-02-26T13:46:14;5.40;;;2.03;;
7665;SDS011;3875;46.562;4.898;2024-02-26T13:48:43;3.10;;;1.23;;
7665;SDS011;3875;46.562;4.898;2024-02-26T13:51:11;7.77;;;3.10;;
7665;SDS011;3875;46.562;4.898;2024-02-26T13:53:37;12.80;;;11.80;;
7665;SDS011;3875;46.562;4.898;2024-02-26T13:56:03;12.13;;;11.10;;
7665;SDS011;3875;46.562;4.898;2024-02-26T13:58:30;6.27;;;3.93;;
7665;SDS011;3875;46.562;4.898;2024-02-26T14:00:56;20.87;;;19.37;;
7665;SDS011;3875;46.562;4.898;2024-02-26T14:03:23;8.13;;;5.83;;
7665;SDS011;3875;46.562;4.898;2024-02-26T14:05:48;15.43;;;14.23;;
7665;SDS011;3875;46.562;4.898;2024-02-26T14:08:14;8.07;;;7.37;;
7665;SDS011;3875;46.562;4.898;2024-02-26T14:10:40;18.70;;;17.20;;
7665;SDS011;3875;46.562;4.898;2024-02-26T14:13:06;19.30;;;18.00;;
7665;SDS011;3875;46.562;4.898;2024-02-26T14:15:32;17.30;;;15.87;;
7665;SDS011;3875;46.562;4.898;2024-02-26T14:18:00;13.43;;;12.47;;
7665;SDS011;3875;46.562;4.898;2024-02-26T14:20:28;7.93;;;5.93;;
7665;SDS011;3875;46.562;4.898;2024-02-26T14:22:53;7.97;;;7.37;;
7665;SDS011;3875;46.562;4.898;2024-02-26T14:25:20;7.77;;;6.97;;
7665;SDS011;3875;46.562;4.898;2024-02-26T14:27:47;7.07;;;6.40;;
7665;SDS011;3875;46.562;4.898;2024-02-26T14:30:13;10.57;;;8.37;;
7665;SDS011;3875;46.562;4.898;2024-02-26T14:32:39;10.53;;;9.70;;
7665;SDS011;3875;46.562;4.898;2024-02-26T14:35:08;8.23;;;2.77;;
7665;SDS011;3875;46.562;4.898;2024-02-26T14:37:36;5.73;;;1.97;;
7665;SDS011;3875;46.562;4.898;2024-02-26T14:40:06;6.63;;;2.33;;
7665;SDS011;3875;46.562;4.898;2024-02-26T14:42:33;24.70;;;23.10;;
7665;SDS011;3875;46.562;4.898;2024-02-26T14:44:58;4.97;;;1.70;;
7665;SDS011;3875;46.562;4.898;2024-02-26T14:47:24;4.30;;;1.57;;
7665;SDS011;3875;46.562;4.898;2024-02-26T14:49:50;5.07;;;1.97;;
7665;SDS011;3875;46.562;4.898;2024-02-26T14:52:16;5.73;;;1.97;;
7665;SDS011;3875;46.562;4.898;2024-02-26T14:54:42;4.10;;;1.50;;
7665;SDS011;3875;46.562;4.898;2024-02-26T14:57:08;4.73;;;1.67;;
7665;SDS011;3875;46.562;4.898;2024-02-26T14:59:34;3.47;;;1.40;;
7665;SDS011;3875;46.562;4.898;2024-02-26T15:02:01;3.80;;;1.40;;
7665;SDS011;3875;46.562;4.898;2024-02-26T15:04:27;4.03;;;1.50;;
7665;SDS011;3875;46.562;4.898;2024-02-26T15:06:53;5.87;;;2.67;;
7665;SDS011;3875;46.562;4.898;2024-02-26T15:09:19;4.33;;;1.47;;
7665;SDS011;3875;46.562;4.898;2024-02-26T15:11:44;6.90;;;2.17;;
7665;SDS011;3875;46.562;4.898;2024-02-26T15:14:10;5.17;;;1.80;;
7665;SDS011;3875;46.562;4.898;2024-02-26T15:16:36;4.40;;;1.53;;
7665;SDS011;3875;46.562;4.898;2024-02-26T15:19:02;3.77;;;1.70;;
7665;SDS011;3875;46.562;4.898;2024-02-26T15:21:32;3.23;;;1.23;;
7665;SDS011;3875;46.562;4.898;2024-02-26T15:23:58;4.63;;;1.50;;
7665;SDS011;3875;46.562;4.898;2024-02-26T15:26:23;5.37;;;1.83;;
7665;SDS011;3875;46.562;4.898;2024-02-26T15:28:51;4.03;;;1.53;;
7665;SDS011;3875;46.562;4.898;2024-02-26T15:31:17;3.60;;;1.30;;
7665;SDS011;3875;46.562;4.898;2024-02-26T15:33:44;3.37;;;1.37;;
7665;SDS011;3875;46.562;4.898;2024-02-26T15:36:09;7.80;;;2.40;;
7665;SDS011;3875;46.562;4.898;2024-02-26T15:38:35;21.83;;;20.33;;
7665;SDS011;3875;46.562;4.898;2024-02-26T15:41:01;4.80;;;3.97;;
7665;SDS011;3875;46.562;4.898;2024-02-26T15:43:27;23.87;;;22.50;;